CheckWX is a tool to help pilots better visualize weather data.  It is not intended as a substitute for an official pre-flight weather briefing.

18:17:54 UTC

PAGS TAF
Gustavus Airport
Gustavus, Alaska, USA
PAGS 171733Z 1718/1818 35003KT P6SM FEW100 AMD LTD TO CLD VIS AND WIND

Jan-17@
18:00 UTC

Jan-17 @ 18:00 UTC

Jan-18@
18:00 UTC

Jan-18 @ 18:00 UTC

PAGS 171733Z 1718/1818 35003KT P6SM FEW100 AMD LTD TO CLD VIS AND WIND
Wind
  • 350° at 3 KTS
Cloud Levels
  • Few at 10,000' AGL